Milford, Utah
Current Conditions -  °F | °C
As of 10:52 PM on Friday 19 Dec 2014 (Local Time) from KMLF Reporting Station
Overcast Overcast  
Wind Chill: 28°   Ceiling: 6500
Heat Index: 37°   Visibility: 10mi
Dew Point: 29°   Wind: 15mph
Humidity: 73%   Direction: 210°SSW
Pressure: 30.15"   Gusts: NA
Location:  38.4°N, 113.01°W
Report Text: KMLF 200552Z AUTO 21013KT 10SM BKN065 OVC085 03/M02 A3015 RMK AO2 SLP211 T00281017 10061 20022 50005 TSNO
Loading
Personal Weather Stations






























Interactive Weather Map New forecast layout! Learn more

10-Day Weather Forecast

Advertisements
Track Severe Weather on mobile